Terminal Aerodrome Forecast
Issued by NWS Jacksonville, FL

Home | Current Version | Previous Version | Text Only | Print | Product List | Glossary On
Versions: 1 2 3 4 5 6 7 8 9 10 11 12 13 14 15 16 17 18 19 20 21 22 23 24 25 26 27 28 29 30 31 32
000
FTUS42 KJAX 101731
TAFGNV
TAF
KGNV 101731Z 1018/1118 19009KT P6SM SCT040 BKN250
     FM110000 VRB03KT P6SM BKN100
     FM110600 00000KT 3SM BR VCSH SCT007 BKN015
     FM110900 00000KT 1SM -RA BR BKN003 OVC007
     FM111500 02006KT P6SM OVC015=

USA.gov is the U.S. government's official web portal to all federal, state and local government web resources and services.